Terminal Aerodrome Forecast
Issued by NWS

Home | Current Version | Previous Version | Text Only | Print | Product List | Glossary On
Versions: 1 2 3 4 5 6 7 8 9 10 11 12 13 14 15 16 17
696
FTUS46 KMFR 222338
TAFLMT
TAF
KLMT 222338Z 2300/2324 35007KT P6SM SCT060 BKN080 BKN200
     FM230300 VRB04KT P6SM SCT200
     FM231900 36005KT P6SM SCT100 BKN150=

USA.gov is the U.S. government's official web portal to all federal, state and local government web resources and services.